^^
Station Historical Data
Daily Summary for June 26, 2017 Units:  Both    English   Metric
« Previous Day
Next Day »
Daily Weekly Monthly Yearly Custom
  High: Low: Average:
Temperature: 71.2 °F /  21.8 °C 42.6 °F /  5.9 °C 56 °F /  13.3 °C
Dew Point: 40.6 °F /  4.8 °C 30.2 °F /  -1 °C 33.6 °F /  0.9 °C
Humidity: 74% 24% 46%
Wind Speed: 8.1mph /  13km/h - 0.5mph /  0.8km/h
Wind Gust: 14.0mph /  22.5km/h - -
Wind- - SW
Pressure: 30.38 in /  1028.7 hPa 30.25 in /  1024.3 hPa -
Precipitation: 0.00 in /  0 mm    
Historical Graphs
 
 
Tabular Data for June 26, 2017
Time Temperature Dew Point Pressure Wind Wind Speed Wind Gust Humidity Rainfall Rate (Hourly) solar Conditions
00:05 45.5 °F /  7.5 °C 30.2 °F /  -1 °C 30.35in /  1027.7hPa Calm     55% 0.00in /  0mm 0.0 W/m2
00:11 45.3 °F /  7.4 °C 30.6 °F /  -0.8 °C 30.35in /  1027.7hPa Calm     56% 0.00in /  0mm 0.0 W/m2
00:17 45.1 °F /  7.3 °C 30.4 °F /  -0.9 °C 30.35in /  1027.7hPa Calm     56% 0.00in /  0mm 0.0 W/m2
00:23 45.0 °F /  7.2 °C 30.6 °F /  -0.8 °C 30.35in /  1027.7hPa Calm     57% 0.00in /  0mm 0.0 W/m2
00:29 44.8 °F /  7.1 °C 30.6 °F /  -0.8 °C 30.35in /  1027.7hPa Calm     57% 0.00in /  0mm 0.0 W/m2
00:35 44.8 °F /  7.1 °C 30.6 °F /  -0.8 °C 30.35in /  1027.7hPa Calm     57% 0.00in /  0mm 0.0 W/m2
00:42 44.6 °F /  7 °C 30.7 °F /  -0.7 °C 30.35in /  1027.7hPa Calm     58% 0.00in /  0mm 0.0 W/m2
00:48 44.4 °F /  6.9 °C 30.6 °F /  -0.8 °C 30.35in /  1027.7hPa Calm     58% 0.00in /  0mm 0.0 W/m2
00:54 44.2 °F /  6.8 °C 30.4 °F /  -0.9 °C 30.35in /  1027.7hPa Calm     58% 0.00in /  0mm 0.0 W/m2
01:00 44.1 °F /  6.7 °C 30.7 °F /  -0.7 °C 30.35in /  1027.7hPa Calm     59% 0.00in /  0mm 0.0 W/m2
01:06 44.1 °F /  6.7 °C 30.7 °F /  -0.7 °C 30.35in /  1027.7hPa Calm     59% 0.00in /  0mm 0.0 W/m2
01:12 43.9 °F /  6.6 °C 30.6 °F /  -0.8 °C 30.34in /  1027.3hPa Calm     59% 0.00in /  0mm 0.0 W/m2
01:18 43.9 °F /  6.6 °C 30.6 °F /  -0.8 °C 30.34in /  1027.3hPa Calm     59% 0.00in /  0mm 0.0 W/m2
01:24 43.9 °F /  6.6 °C 30.6 °F /  -0.8 °C 30.34in /  1027.3hPa Calm     59% 0.00in /  0mm 0.0 W/m2
01:30 43.7 °F /  6.5 °C 30.7 °F /  -0.7 °C 30.34in /  1027.3hPa Calm     60% 0.00in /  0mm 0.0 W/m2
01:36 43.9 °F /  6.6 °C 30.9 °F /  -0.6 °C 30.34in /  1027.3hPa Calm     60% 0.00in /  0mm 0.0 W/m2
01:42 43.9 °F /  6.6 °C 31.3 °F /  -0.4 °C 30.34in /  1027.3hPa Calm     61% 0.00in /  0mm 0.0 W/m2
01:48 43.9 °F /  6.6 °C 31.3 °F /  -0.4 °C 30.34in /  1027.3hPa Calm     61% 0.00in /  0mm 0.0 W/m2
01:54 44.1 °F /  6.7 °C 31.5 °F /  -0.3 °C 30.34in /  1027.3hPa Calm     61% 0.00in /  0mm 0.0 W/m2
02:00 44.1 °F /  6.7 °C 31.5 °F /  -0.3 °C 30.33in /  1027hPa Calm     61% 0.00in /  0mm 0.0 W/m2
02:06 44.2 °F /  6.8 °C 31.6 °F /  -0.2 °C 30.33in /  1027hPa Calm     61% 0.00in /  0mm 0.0 W/m2
02:12 44.4 °F /  6.9 °C 31.8 °F /  -0.1 °C 30.33in /  1027hPa Calm     61% 0.00in /  0mm 0.0 W/m2
02:18 44.4 °F /  6.9 °C 31.5 °F /  -0.3 °C 30.33in /  1027hPa Calm     60% 0.00in /  0mm 0.0 W/m2
02:24 44.6 °F /  7 °C 31.6 °F /  -0.2 °C 30.33in /  1027hPa Calm     60% 0.00in /  0mm 0.0 W/m2
02:30 44.8 °F /  7.1 °C 31.8 °F /  -0.1 °C 30.33in /  1027hPa Calm     60% 0.00in /  0mm 0.0 W/m2
02:36 44.8 °F /  7.1 °C 31.8 °F /  -0.1 °C 30.33in /  1027hPa Calm     60% 0.00in /  0mm 0.0 W/m2
02:42 44.8 °F /  7.1 °C 31.8 °F /  -0.1 °C 30.33in /  1027hPa Calm     60% 0.00in /  0mm 0.0 W/m2
02:48 44.8 °F /  7.1 °C 31.8 °F /  -0.1 °C 30.33in /  1027hPa Calm     60% 0.00in /  0mm 0.0 W/m2
02:54 44.8 °F /  7.1 °C 31.8 °F /  -0.1 °C 30.33in /  1027hPa Calm     60% 0.00in /  0mm 0.0 W/m2
03:00 44.8 °F /  7.1 °C 32.2 °F /  0.1 °C 30.33in /  1027hPa Calm     61% 0.00in /  0mm 0.0 W/m2
03:06 44.8 °F /  7.1 °C 32.2 °F /  0.1 °C 30.33in /  1027hPa Calm     61% 0.00in /  0mm 0.0 W/m2
03:12 44.8 °F /  7.1 °C 32.5 °F /  0.3 °C 30.33in /  1027hPa Calm     62% 0.00in /  0mm 0.0 W/m2
03:18 45.0 °F /  7.2 °C 32.7 °F /  0.4 °C 30.33in /  1027hPa Calm     62% 0.00in /  0mm 0.0 W/m2
03:24 45.0 °F /  7.2 °C 33.1 °F /  0.6 °C 30.33in /  1027hPa Calm     63% 0.00in /  0mm 0.0 W/m2
03:30 45.0 °F /  7.2 °C 33.1 °F /  0.6 °C 30.34in /  1027.3hPa Calm     63% 0.00in /  0mm 0.0 W/m2
03:36 44.8 °F /  7.1 °C 32.9 °F /  0.5 °C 30.34in /  1027.3hPa Calm     63% 0.00in /  0mm 0.0 W/m2
03:42 44.8 °F /  7.1 °C 33.3 °F /  0.7 °C 30.33in /  1027hPa Calm     64% 0.00in /  0mm 0.0 W/m2
03:48 44.8 °F /  7.1 °C 33.3 °F /  0.7 °C 30.34in /  1027.3hPa Calm     64% 0.00in /  0mm 0.0 W/m2
03:54 44.6 °F /  7 °C 33.3 °F /  0.7 °C 30.33in /  1027hPa Calm     64% 0.00in /  0mm 0.0 W/m2
04:01 44.4 °F /  6.9 °C 33.4 °F /  0.8 °C 30.34in /  1027.3hPa Calm     65% 0.00in /  0mm 0.0 W/m2
04:08 44.2 °F /  6.8 °C 33.3 °F /  0.7 °C 30.33in /  1027hPa Calm   1.0mph /  1.6km/h 65% 0.00in /  0mm 0.0 W/m2
04:14 44.4 °F /  6.9 °C 33.8 °F /  1 °C 30.33in /  1027hPa Calm     66% 0.00in /  0mm 0.0 W/m2
04:21 44.4 °F /  6.9 °C 33.8 °F /  1 °C 30.34in /  1027.3hPa Calm     66% 0.00in /  0mm 0.0 W/m2
04:26 44.2 °F /  6.8 °C 34.0 °F /  1.1 °C 30.33in /  1027hPa Calm     67% 0.00in /  0mm 0.0 W/m2
04:33 44.2 °F /  6.8 °C 34.0 °F /  1.1 °C 30.33in /  1027hPa Calm   1.0mph /  1.6km/h 67% 0.00in /  0mm 0.0 W/m2
04:38 44.2 °F /  6.8 °C 34.0 °F /  1.1 °C 30.34in /  1027.3hPa Calm     67% 0.00in /  0mm 0.0 W/m2
04:45 44.2 °F /  6.8 °C 34.3 °F /  1.3 °C 30.34in /  1027.3hPa Calm     68% 0.00in /  0mm 0.0 W/m2
04:50 44.4 °F /  6.9 °C 34.5 °F /  1.4 °C 30.33in /  1027hPa Calm     68% 0.00in /  0mm 0.0 W/m2
04:57 44.6 °F /  7 °C 34.7 °F /  1.5 °C 30.33in /  1027hPa Calm     68% 0.00in /  0mm 0.0 W/m2
05:03 44.8 °F /  7.1 °C 34.9 °F /  1.6 °C 30.34in /  1027.3hPa Calm     68% 0.00in /  0mm 0.0 W/m2
05:09 44.8 °F /  7.1 °C 34.9 °F /  1.6 °C 30.33in /  1027hPa Calm     68% 0.00in /  0mm 0.0 W/m2
05:15 44.8 °F /  7.1 °C 34.9 °F /  1.6 °C 30.34in /  1027.3hPa Calm   1.0mph /  1.6km/h 68% 0.00in /  0mm 0.0 W/m2
05:21 44.6 °F /  7 °C 34.3 °F /  1.3 °C 30.34in /  1027.3hPa Calm     67% 0.00in /  0mm 0.0 W/m2
05:27 44.4 °F /  6.9 °C 34.2 °F /  1.2 °C 30.34in /  1027.3hPa Calm     67% 0.00in /  0mm 0.0 W/m2
05:33 44.2 °F /  6.8 °C 34.3 °F /  1.3 °C 30.35in /  1027.7hPa Calm   1.0mph /  1.6km/h 68% 0.00in /  0mm 0.0 W/m2
05:39 44.1 °F /  6.7 °C 34.2 °F /  1.2 °C 30.35in /  1027.7hPa Calm   1.0mph /  1.6km/h 68% 0.00in /  0mm 0.0 W/m2
05:45 44.1 °F /  6.7 °C 34.2 °F /  1.2 °C 30.35in /  1027.7hPa Calm   1.0mph /  1.6km/h 68% 0.00in /  0mm 0.0 W/m2
05:51 43.9 °F /  6.6 °C 34.3 °F /  1.3 °C 30.35in /  1027.7hPa Calm     69% 0.00in /  0mm 0.0 W/m2
05:57 43.9 °F /  6.6 °C 34.3 °F /  1.3 °C 30.35in /  1027.7hPa Calm   1.0mph /  1.6km/h 69% 0.00in /  0mm 0.0 W/m2
06:03 43.9 °F /  6.6 °C 34.3 °F /  1.3 °C 30.35in /  1027.7hPa Calm     69% 0.00in /  0mm 0.0 W/m2
06:09 43.9 °F /  6.6 °C 34.3 °F /  1.3 °C 30.35in /  1027.7hPa Calm     69% 0.00in /  0mm 0.0 W/m2
06:15 43.5 °F /  6.4 °C 34.3 °F /  1.3 °C 30.35in /  1027.7hPa Calm     70% 0.00in /  0mm 0.0 W/m2
06:21 43.3 °F /  6.3 °C 34.2 °F /  1.2 °C 30.35in /  1027.7hPa Calm     70% 0.00in /  0mm 0.0 W/m2
06:27 43.3 °F /  6.3 °C 34.5 °F /  1.4 °C 30.35in /  1027.7hPa Calm     71% 0.00in /  0mm 0.0 W/m2
06:33 43.2 °F /  6.2 °C 34.7 °F /  1.5 °C 30.36in /  1028hPa Calm     72% 0.00in /  0mm 0.0 W/m2
06:39 43.0 °F /  6.1 °C 34.5 °F /  1.4 °C 30.36in /  1028hPa Calm   1.0mph /  1.6km/h 72% 0.00in /  0mm 5.0 W/m2
06:45 43.0 °F /  6.1 °C 34.5 °F /  1.4 °C 30.36in /  1028hPa Calm     72% 0.00in /  0mm 9.0 W/m2
06:51 43.0 °F /  6.1 °C 34.9 °F /  1.6 °C 30.36in /  1028hPa Calm     73% 0.00in /  0mm 12.0 W/m2
06:57 42.6 °F /  5.9 °C 34.5 °F /  1.4 °C 30.36in /  1028hPa Calm     73% 0.00in /  0mm 16.0 W/m2
07:03 42.6 °F /  5.9 °C 34.9 °F /  1.6 °C 30.36in /  1028hPa Calm   2.0mph /  3.2km/h 74% 0.00in /  0mm 18.0 W/m2
07:09 42.6 °F /  5.9 °C 34.9 °F /  1.6 °C 30.36in /  1028hPa Calm     74% 0.00in /  0mm 19.0 W/m2
07:15 43.0 °F /  6.1 °C 35.2 °F /  1.8 °C 30.36in /  1028hPa Calm   1.0mph /  1.6km/h 74% 0.00in /  0mm 23.0 W/m2
07:21 43.2 °F /  6.2 °C 35.4 °F /  1.9 °C 30.37in /  1028.3hPa Calm     74% 0.00in /  0mm 25.0 W/m2
07:27 43.3 °F /  6.3 °C 35.2 °F /  1.8 °C 30.37in /  1028.3hPa Calm     73% 0.00in /  0mm 28.0 W/m2
07:33 43.5 °F /  6.4 °C 35.8 °F /  2.1 °C 30.37in /  1028.3hPa Calm     74% 0.00in /  0mm 32.0 W/m2
07:39 43.9 °F /  6.6 °C 36.1 °F /  2.3 °C 30.38in /  1028.7hPa Calm     74% 0.00in /  0mm 33.0 W/m2
07:45 44.1 °F /  6.7 °C 36.3 °F /  2.4 °C 30.38in /  1028.7hPa Calm     74% 0.00in /  0mm 37.0 W/m2
07:51 44.8 °F /  7.1 °C 37.0 °F /  2.8 °C 30.38in /  1028.7hPa Calm     74% 0.00in /  0mm 42.0 W/m2
07:57 46.4 °F /  8 °C 37.9 °F /  3.3 °C 30.38in /  1028.7hPa Calm   3.0mph /  4.8km/h 72% 0.00in /  0mm 206.0 W/m2
08:03 48.6 °F /  9.2 °C 38.5 °F /  3.6 °C 30.38in /  1028.7hPa Calm   2.0mph /  3.2km/h 68% 0.00in /  0mm 237.0 W/m2
08:10 50.7 °F /  10.4 °C 39.0 °F /  3.9 °C 30.38in /  1028.7hPa Calm   2.0mph /  3.2km/h 64% 0.00in /  0mm 260.0 W/m2
08:16 52.9 °F /  11.6 °C 39.4 °F /  4.1 °C 30.38in /  1028.7hPa Calm     60% 0.00in /  0mm 281.0 W/m2
08:22 54.3 °F /  12.4 °C 39.4 °F /  4.1 °C 30.38in /  1028.7hPa Calm     57% 0.00in /  0mm 301.0 W/m2
08:28 55.6 °F /  13.1 °C 39.7 °F /  4.3 °C 30.38in /  1028.7hPa Calm   1.0mph /  1.6km/h 55% 0.00in /  0mm 316.0 W/m2
08:34 56.8 °F /  13.8 °C 39.4 °F /  4.1 °C 30.38in /  1028.7hPa Calm   1.0mph /  1.6km/h 52% 0.00in /  0mm 334.0 W/m2
08:40 57.9 °F /  14.4 °C 39.9 °F /  4.4 °C 30.38in /  1028.7hPa ENE 0.9mph /  1.4km/h 1.0mph /  1.6km/h 51% 0.00in /  0mm 355.0 W/m2
08:46 58.8 °F /  14.9 °C 39.7 °F /  4.3 °C 30.37in /  1028.3hPa Calm   1.0mph /  1.6km/h 49% 0.00in /  0mm 371.0 W/m2
08:52 60.1 °F /  15.6 °C 39.7 °F /  4.3 °C 30.38in /  1028.7hPa NNE 2.9mph /  4.7km/h 3.0mph /  4.8km/h 47% 0.00in /  0mm 388.0 W/m2
08:58 60.6 °F /  15.9 °C 40.3 °F /  4.6 °C 30.38in /  1028.7hPa East 2.9mph /  4.7km/h 3.0mph /  4.8km/h 47% 0.00in /  0mm 404.0 W/m2
09:04 61.3 °F /  16.3 °C 40.5 °F /  4.7 °C 30.37in /  1028.3hPa ESE 2.0mph /  3.2km/h 4.0mph /  6.4km/h 46% 0.00in /  0mm 420.0 W/m2
09:10 62.1 °F /  16.7 °C 40.5 °F /  4.7 °C 30.37in /  1028.3hPa NW 0.9mph /  1.4km/h 3.0mph /  4.8km/h 45% 0.00in /  0mm 436.0 W/m2
09:16 62.8 °F /  17.1 °C 40.5 °F /  4.7 °C 30.38in /  1028.7hPa Calm   2.0mph /  3.2km/h 44% 0.00in /  0mm 454.0 W/m2
09:22 63.0 °F /  17.2 °C 40.1 °F /  4.5 °C 30.37in /  1028.3hPa Calm   4.0mph /  6.4km/h 43% 0.00in /  0mm 466.0 W/m2
09:28 62.8 °F /  17.1 °C 40.5 °F /  4.7 °C 30.37in /  1028.3hPa Calm     44% 0.00in /  0mm 480.0 W/m2
09:34 62.8 °F /  17.1 °C 39.9 °F /  4.4 °C 30.37in /  1028.3hPa Calm   1.0mph /  1.6km/h 43% 0.00in /  0mm 492.0 W/m2
09:41 63.0 °F /  17.2 °C 40.1 °F /  4.5 °C 30.37in /  1028.3hPa Calm   3.0mph /  4.8km/h 43% 0.00in /  0mm 508.0 W/m2
09:47 63.3 °F /  17.4 °C 39.9 °F /  4.4 °C 30.37in /  1028.3hPa Calm   1.0mph /  1.6km/h 42% 0.00in /  0mm 515.0 W/m2
09:53 63.7 °F /  17.6 °C 40.1 °F /  4.5 °C 30.37in /  1028.3hPa NNW 4.0mph /  6.4km/h 4.0mph /  6.4km/h 42% 0.00in /  0mm 527.0 W/m2
09:59 64.0 °F /  17.8 °C 39.9 °F /  4.4 °C 30.37in /  1028.3hPa NNW 4.0mph /  6.4km/h 7.0mph /  11.3km/h 41% 0.00in /  0mm 540.0 W/m2
10:05 64.6 °F /  18.1 °C 40.3 °F /  4.6 °C 30.36in /  1028hPa NNW 2.0mph /  3.2km/h 2.0mph /  3.2km/h 41% 0.00in /  0mm 548.0 W/m2
10:11 64.8 °F /  18.2 °C 40.5 °F /  4.7 °C 30.36in /  1028hPa Calm   1.0mph /  1.6km/h 41% 0.00in /  0mm 557.0 W/m2
10:18 65.1 °F /  18.4 °C 40.3 °F /  4.6 °C 30.36in /  1028hPa Calm   2.0mph /  3.2km/h 40% 0.00in /  0mm 568.0 W/m2
10:24 65.5 °F /  18.6 °C 39.9 °F /  4.4 °C 30.36in /  1028hPa Calm   5.0mph /  8km/h 39% 0.00in /  0mm 573.0 W/m2
10:26 65.7 °F /  18.7 °C 40.1 °F /  4.5 °C 30.36in /  1028hPa West 0.9mph /  1.4km/h 2.0mph /  3.2km/h 39% 0.00in /  0mm 578.0 W/m2
10:32 65.8 °F /  18.8 °C 40.1 °F /  4.5 °C 30.36in /  1028hPa Calm   1.0mph /  1.6km/h 39% 0.00in /  0mm 589.0 W/m2
10:34 66.0 °F /  18.9 °C 40.3 °F /  4.6 °C 30.36in /  1028hPa NNW 4.0mph /  6.4km/h 4.0mph /  6.4km/h 39% 0.00in /  0mm 594.0 W/m2
10:40 66.4 °F /  19.1 °C 40.6 °F /  4.8 °C 30.35in /  1027.7hPa NE 2.9mph /  4.7km/h 4.0mph /  6.4km/h 39% 0.00in /  0mm 601.0 W/m2
10:46 66.7 °F /  19.3 °C 40.3 °F /  4.6 °C 30.35in /  1027.7hPa SW 0.9mph /  1.4km/h 2.0mph /  3.2km/h 38% 0.00in /  0mm 606.0 W/m2
10:52 66.9 °F /  19.4 °C 39.0 °F /  3.9 °C 30.35in /  1027.7hPa Calm   3.0mph /  4.8km/h 36% 0.00in /  0mm 613.0 W/m2
10:58 67.5 °F /  19.7 °C 39.6 °F /  4.2 °C 30.35in /  1027.7hPa NW 0.9mph /  1.4km/h 4.0mph /  6.4km/h 36% 0.00in /  0mm 622.0 W/m2
11:04 68.0 °F /  20 °C 38.7 °F /  3.7 °C 30.34in /  1027.3hPa North 2.0mph /  3.2km/h 2.0mph /  3.2km/h 34% 0.00in /  0mm 622.0 W/m2
11:06 68.2 °F /  20.1 °C 38.7 °F /  3.7 °C 30.34in /  1027.3hPa SW 0.9mph /  1.4km/h 5.0mph /  8km/h 34% 0.00in /  0mm 626.0 W/m2
11:12 68.4 °F /  20.2 °C 37.4 °F /  3 °C 30.33in /  1027hPa NNE 4.9mph /  7.9km/h 7.0mph /  11.3km/h 32% 0.00in /  0mm 636.0 W/m2
11:18 68.5 °F /  20.3 °C 38.3 °F /  3.5 °C 30.33in /  1027hPa NNW 2.0mph /  3.2km/h 7.0mph /  11.3km/h 33% 0.00in /  0mm 635.0 W/m2
11:25 68.7 °F /  20.4 °C 38.5 °F /  3.6 °C 30.33in /  1027hPa NW 0.9mph /  1.4km/h 7.0mph /  11.3km/h 33% 0.00in /  0mm 642.0 W/m2
11:31 68.9 °F /  20.5 °C 36.1 °F /  2.3 °C 30.33in /  1027hPa Calm   4.0mph /  6.4km/h 30% 0.00in /  0mm 642.0 W/m2
11:37 69.1 °F /  20.6 °C 36.3 °F /  2.4 °C 30.33in /  1027hPa Calm   5.0mph /  8km/h 30% 0.00in /  0mm 643.0 W/m2
11:43 69.3 °F /  20.7 °C 37.4 °F /  3 °C 30.32in /  1026.6hPa Calm   5.0mph /  8km/h 31% 0.00in /  0mm 645.0 W/m2
11:49 69.3 °F /  20.7 °C 36.5 °F /  2.5 °C 30.32in /  1026.6hPa NW 2.0mph /  3.2km/h 6.0mph /  9.7km/h 30% 0.00in /  0mm 640.0 W/m2
11:55 69.4 °F /  20.8 °C 36.7 °F /  2.6 °C 30.32in /  1026.6hPa North 0.9mph /  1.4km/h 2.0mph /  3.2km/h 30% 0.00in /  0mm 642.0 W/m2
12:01 69.6 °F /  20.9 °C 36.0 °F /  2.2 °C 30.32in /  1026.6hPa Calm   7.0mph /  11.3km/h 29% 0.00in /  0mm 636.0 W/m2
12:07 70.0 °F /  21.1 °C 37.0 °F /  2.8 °C 30.31in /  1026.3hPa NNE 0.9mph /  1.4km/h 4.0mph /  6.4km/h 30% 0.00in /  0mm 638.0 W/m2
12:13 70.0 °F /  21.1 °C 36.3 °F /  2.4 °C 30.31in /  1026.3hPa NE 0.9mph /  1.4km/h 5.0mph /  8km/h 29% 0.00in /  0mm 635.0 W/m2
12:20 70.3 °F /  21.3 °C 36.5 °F /  2.5 °C 30.30in /  1026hPa North 2.0mph /  3.2km/h 4.0mph /  6.4km/h 29% 0.00in /  0mm 640.0 W/m2
12:26 70.7 °F /  21.5 °C 36.0 °F /  2.2 °C 30.30in /  1026hPa Calm   4.0mph /  6.4km/h 28% 0.00in /  0mm 631.0 W/m2
12:32 71.1 °F /  21.7 °C 35.4 °F /  1.9 °C 30.30in /  1026hPa Calm   1.0mph /  1.6km/h 27% 0.00in /  0mm 631.0 W/m2
12:38 71.1 °F /  21.7 °C 34.5 °F /  1.4 °C 30.29in /  1025.6hPa Calm   5.0mph /  8km/h 26% 0.00in /  0mm 626.0 W/m2
12:44 71.1 °F /  21.7 °C 35.4 °F /  1.9 °C 30.29in /  1025.6hPa NW 2.0mph /  3.2km/h 7.0mph /  11.3km/h 27% 0.00in /  0mm 624.0 W/m2
12:50 71.1 °F /  21.7 °C 33.4 °F /  0.8 °C 30.29in /  1025.6hPa SW 0.9mph /  1.4km/h 7.0mph /  11.3km/h 25% 0.00in /  0mm 610.0 W/m2
12:56 71.2 °F /  21.8 °C 34.5 °F /  1.4 °C 30.28in /  1025.3hPa Calm   3.0mph /  4.8km/h 26% 0.00in /  0mm 608.0 W/m2
13:02 71.2 °F /  21.8 °C 35.6 °F /  2 °C 30.28in /  1025.3hPa Calm   7.0mph /  11.3km/h 27% 0.00in /  0mm 605.0 W/m2
13:09 71.2 °F /  21.8 °C 34.5 °F /  1.4 °C 30.28in /  1025.3hPa West 0.9mph /  1.4km/h 2.0mph /  3.2km/h 26% 0.00in /  0mm 596.0 W/m2
13:15 71.2 °F /  21.8 °C 34.5 °F /  1.4 °C 30.27in /  1024.9hPa NNW 0.9mph /  1.4km/h 5.0mph /  8km/h 26% 0.00in /  0mm 587.0 W/m2
13:21 71.1 °F /  21.7 °C 33.4 °F /  0.8 °C 30.27in /  1024.9hPa NNW 6.9mph /  11.1km/h 11.0mph /  17.7km/h 25% 0.00in /  0mm 573.0 W/m2
13:27 71.1 °F /  21.7 °C 33.4 °F /  0.8 °C 30.27in /  1024.9hPa Calm   3.0mph /  4.8km/h 25% 0.00in /  0mm 564.0 W/m2
13:33 71.2 °F /  21.8 °C 33.6 °F /  0.9 °C 30.27in /  1024.9hPa Calm   8.0mph /  12.9km/h 25% 0.00in /  0mm 555.0 W/m2
13:40 71.1 °F /  21.7 °C 32.4 °F /  0.2 °C 30.27in /  1024.9hPa NNW 2.9mph /  4.7km/h 7.0mph /  11.3km/h 24% 0.00in /  0mm 527.0 W/m2
13:45 71.1 °F /  21.7 °C 32.4 °F /  0.2 °C 30.27in /  1024.9hPa NNW 0.9mph /  1.4km/h 4.0mph /  6.4km/h 24% 0.00in /  0mm 529.0 W/m2
13:51 70.9 °F /  21.6 °C 32.4 °F /  0.2 °C 30.27in /  1024.9hPa NNW 6.0mph /  9.7km/h 11.0mph /  17.7km/h 24% 0.00in /  0mm 527.0 W/m2
13:57 71.1 °F /  21.7 °C 32.4 °F /  0.2 °C 30.27in /  1024.9hPa NNW 8.1mph /  13km/h 8.1mph /  13km/h 24% 0.00in /  0mm 517.0 W/m2
14:03 71.1 °F /  21.7 °C 32.4 °F /  0.2 °C 30.27in /  1024.9hPa NNW 2.9mph /  4.7km/h 5.0mph /  8km/h 24% 0.00in /  0mm 496.0 W/m2
14:11 70.9 °F /  21.6 °C 32.4 °F /  0.2 °C 30.27in /  1024.9hPa North 2.9mph /  4.7km/h 12.0mph /  19.3km/h 24% 0.00in /  0mm 478.0 W/m2
14:18 70.5 °F /  21.4 °C 33.1 °F /  0.6 °C 30.27in /  1024.9hPa West 0.9mph /  1.4km/h 8.0mph /  12.9km/h 25% 0.00in /  0mm 466.0 W/m2
14:24 70.7 °F /  21.5 °C 32.2 °F /  0.1 °C 30.26in /  1024.6hPa North 0.9mph /  1.4km/h 6.0mph /  9.7km/h 24% 0.00in /  0mm 455.0 W/m2
14:30 70.5 °F /  21.4 °C 32.0 °F /  0 °C 30.26in /  1024.6hPa West 0.9mph /  1.4km/h 14.0mph /  22.5km/h 24% 0.00in /  0mm 431.0 W/m2
14:36 70.5 °F /  21.4 °C 32.0 °F /  0 °C 30.26in /  1024.6hPa NNW 0.9mph /  1.4km/h 8.0mph /  12.9km/h 24% 0.00in /  0mm 401.0 W/m2
14:42 70.9 °F /  21.6 °C 33.3 °F /  0.7 °C 30.26in /  1024.6hPa Calm   1.0mph /  1.6km/h 25% 0.00in /  0mm 399.0 W/m2
14:48 70.9 °F /  21.6 °C 32.4 °F /  0.2 °C 30.26in /  1024.6hPa Calm   4.0mph /  6.4km/h 24% 0.00in /  0mm 385.0 W/m2
14:56 70.7 °F /  21.5 °C 32.2 °F /  0.1 °C 30.26in /  1024.6hPa NNW 2.0mph /  3.2km/h 8.0mph /  12.9km/h 24% 0.00in /  0mm 369.0 W/m2
15:03 70.3 °F /  21.3 °C 31.8 °F /  -0.1 °C 30.26in /  1024.6hPa Calm   5.0mph /  8km/h 24% 0.00in /  0mm 343.0 W/m2
15:09 70.3 °F /  21.3 °C 31.8 °F /  -0.1 °C 30.26in /  1024.6hPa NNW 4.9mph /  7.9km/h 5.0mph /  8km/h 24% 0.00in /  0mm 323.0 W/m2
15:15 70.2 °F /  21.2 °C 31.6 °F /  -0.2 °C 30.25in /  1024.3hPa WSW 2.0mph /  3.2km/h 5.0mph /  8km/h 24% 0.00in /  0mm 308.0 W/m2
15:21 70.2 °F /  21.2 °C 31.6 °F /  -0.2 °C 30.26in /  1024.6hPa West 2.0mph /  3.2km/h 4.0mph /  6.4km/h 24% 0.00in /  0mm 220.0 W/m2
15:27 70.0 °F /  21.1 °C 31.5 °F /  -0.3 °C 30.25in /  1024.3hPa Calm   1.0mph /  1.6km/h 24% 0.00in /  0mm 63.0 W/m2
15:33 69.8 °F /  21 °C 32.4 °F /  0.2 °C 30.26in /  1024.6hPa North 0.9mph /  1.4km/h 5.0mph /  8km/h 25% 0.00in /  0mm 60.0 W/m2
15:40 69.6 °F /  20.9 °C 31.3 °F /  -0.4 °C 30.26in /  1024.6hPa Calm   3.0mph /  4.8km/h 24% 0.00in /  0mm 58.0 W/m2
15:46 69.4 °F /  20.8 °C 32.0 °F /  0 °C 30.26in /  1024.6hPa Calm   3.0mph /  4.8km/h 25% 0.00in /  0mm 56.0 W/m2
15:52 69.3 °F /  20.7 °C 32.0 °F /  0 °C 30.26in /  1024.6hPa Calm   5.0mph /  8km/h 25% 0.00in /  0mm 53.0 W/m2
15:58 69.1 °F /  20.6 °C 31.8 °F /  -0.1 °C 30.26in /  1024.6hPa NNW 0.9mph /  1.4km/h 7.0mph /  11.3km/h 25% 0.00in /  0mm 49.0 W/m2
16:04 68.7 °F /  20.4 °C 30.4 °F /  -0.9 °C 30.26in /  1024.6hPa WNW 0.9mph /  1.4km/h 3.0mph /  4.8km/h 24% 0.00in /  0mm 44.0 W/m2
16:10 68.5 °F /  20.3 °C 31.3 °F /  -0.4 °C 30.26in /  1024.6hPa Calm     25% 0.00in /  0mm 40.0 W/m2
16:16 68.2 °F /  20.1 °C 32.0 °F /  0 °C 30.26in /  1024.6hPa Calm     26% 0.00in /  0mm 37.0 W/m2
16:24 67.8 °F /  19.9 °C 31.6 °F /  -0.2 °C 30.26in /  1024.6hPa NNW 0.9mph /  1.4km/h 2.0mph /  3.2km/h 26% 0.00in /  0mm 33.0 W/m2
16:31 67.5 °F /  19.7 °C 31.5 °F /  -0.3 °C 30.26in /  1024.6hPa NNW 2.9mph /  4.7km/h 3.0mph /  4.8km/h 26% 0.00in /  0mm 30.0 W/m2
16:37 67.3 °F /  19.6 °C 32.2 °F /  0.1 °C 30.27in /  1024.9hPa Calm     27% 0.00in /  0mm 26.0 W/m2
16:43 66.9 °F /  19.4 °C 30.9 °F /  -0.6 °C 30.27in /  1024.9hPa Calm   3.0mph /  4.8km/h 26% 0.00in /  0mm 25.0 W/m2
16:49 66.7 °F /  19.3 °C 31.6 °F /  -0.2 °C 30.27in /  1024.9hPa Calm     27% 0.00in /  0mm 21.0 W/m2
16:55 66.4 °F /  19.1 °C 31.5 °F /  -0.3 °C 30.27in /  1024.9hPa North 4.9mph /  7.9km/h 5.0mph /  8km/h 27% 0.00in /  0mm 16.0 W/m2
17:01 66.2 °F /  19 °C 31.3 °F /  -0.4 °C 30.27in /  1024.9hPa Calm   3.0mph /  4.8km/h 27% 0.00in /  0mm 12.0 W/m2
17:08 65.8 °F /  18.8 °C 31.8 °F /  -0.1 °C 30.27in /  1024.9hPa Calm   4.0mph /  6.4km/h 28% 0.00in /  0mm 7.0 W/m2
17:14 65.7 °F /  18.7 °C 31.6 °F /  -0.2 °C 30.27in /  1024.9hPa NNE 0.9mph /  1.4km/h 1.0mph /  1.6km/h 28% 0.00in /  0mm 0.0 W/m2
17:20 65.1 °F /  18.4 °C 31.3 °F /  -0.4 °C 30.27in /  1024.9hPa Calm   1.0mph /  1.6km/h 28% 0.00in /  0mm 0.0 W/m2
17:26 64.8 °F /  18.2 °C 30.9 °F /  -0.6 °C 30.28in /  1025.3hPa Calm   1.0mph /  1.6km/h 28% 0.00in /  0mm 0.0 W/m2
17:32 64.2 °F /  17.9 °C 32.2 °F /  0.1 °C 30.28in /  1025.3hPa Calm     30% 0.00in /  0mm 0.0 W/m2
17:42 63.5 °F /  17.5 °C 31.5 °F /  -0.3 °C 30.28in /  1025.3hPa Calm     30% 0.00in /  0mm 0.0 W/m2
17:49 62.8 °F /  17.1 °C 31.6 °F /  -0.2 °C 30.28in /  1025.3hPa Calm     31% 0.00in /  0mm 0.0 W/m2
17:55 62.2 °F /  16.8 °C 31.3 °F /  -0.4 °C 30.28in /  1025.3hPa Calm   1.0mph /  1.6km/h 31% 0.00in /  0mm 0.0 W/m2
18:01 61.5 °F /  16.4 °C 31.5 °F /  -0.3 °C 30.28in /  1025.3hPa Calm     32% 0.00in /  0mm 0.0 W/m2
18:07 61.0 °F /  16.1 °C 31.6 °F /  -0.2 °C 30.28in /  1025.3hPa Calm     33% 0.00in /  0mm 0.0 W/m2
18:13 60.3 °F /  15.7 °C 31.1 °F /  -0.5 °C 30.29in /  1025.6hPa Calm     33% 0.00in /  0mm 0.0 W/m2
18:19 59.5 °F /  15.3 °C 31.1 °F /  -0.5 °C 30.29in /  1025.6hPa Calm     34% 0.00in /  0mm 0.0 W/m2
18:27 59.2 °F /  15.1 °C 30.7 °F /  -0.7 °C 30.29in /  1025.6hPa Calm   1.0mph /  1.6km/h 34% 0.00in /  0mm 0.0 W/m2
18:34 58.5 °F /  14.7 °C 30.9 °F /  -0.6 °C 30.29in /  1025.6hPa Calm     35% 0.00in /  0mm 0.0 W/m2
18:40 58.3 °F /  14.6 °C 31.5 °F /  -0.3 °C 30.29in /  1025.6hPa Calm   1.0mph /  1.6km/h 36% 0.00in /  0mm 0.0 W/m2
18:46 57.7 °F /  14.3 °C 30.9 °F /  -0.6 °C 30.30in /  1026hPa Calm   1.0mph /  1.6km/h 36% 0.00in /  0mm 0.0 W/m2
18:52 57.6 °F /  14.2 °C 30.7 °F /  -0.7 °C 30.30in /  1026hPa Calm   1.0mph /  1.6km/h 36% 0.00in /  0mm 0.0 W/m2
18:58 57.2 °F /  14 °C 30.6 °F /  -0.8 °C 30.30in /  1026hPa Calm   1.0mph /  1.6km/h 36% 0.00in /  0mm 0.0 W/m2
19:04 56.8 °F /  13.8 °C 30.9 °F /  -0.6 °C 30.30in /  1026hPa Calm     37% 0.00in /  0mm 0.0 W/m2
19:11 56.7 °F /  13.7 °C 30.7 °F /  -0.7 °C 30.30in /  1026hPa Calm     37% 0.00in /  0mm 0.0 W/m2
19:17 56.5 °F /  13.6 °C 30.6 °F /  -0.8 °C 30.30in /  1026hPa Calm   1.0mph /  1.6km/h 37% 0.00in /  0mm 0.0 W/m2
19:23 56.1 °F /  13.4 °C 30.9 °F /  -0.6 °C 30.30in /  1026hPa Calm     38% 0.00in /  0mm 0.0 W/m2
19:29 55.9 °F /  13.3 °C 30.7 °F /  -0.7 °C 30.30in /  1026hPa ESE 0.9mph /  1.4km/h 1.0mph /  1.6km/h 38% 0.00in /  0mm 0.0 W/m2
19:35 55.8 °F /  13.2 °C 30.6 °F /  -0.8 °C 30.30in /  1026hPa Calm   2.0mph /  3.2km/h 38% 0.00in /  0mm 0.0 W/m2
19:41 55.6 °F /  13.1 °C 30.4 °F /  -0.9 °C 30.30in /  1026hPa Calm   3.0mph /  4.8km/h 38% 0.00in /  0mm 0.0 W/m2
19:47 55.2 °F /  12.9 °C 30.7 °F /  -0.7 °C 30.30in /  1026hPa Calm   3.0mph /  4.8km/h 39% 0.00in /  0mm 0.0 W/m2
19:54 54.9 °F /  12.7 °C 30.4 °F /  -0.9 °C 30.31in /  1026.3hPa East 2.0mph /  3.2km/h 2.0mph /  3.2km/h 39% 0.00in /  0mm 0.0 W/m2
20:00 54.7 °F /  12.6 °C 30.2 °F /  -1 °C 30.31in /  1026.3hPa Calm     39% 0.00in /  0mm 0.0 W/m2
20:06 54.3 °F /  12.4 °C 30.6 °F /  -0.8 °C 30.31in /  1026.3hPa Calm     40% 0.00in /  0mm 0.0 W/m2
20:12 54.1 °F /  12.3 °C 30.4 °F /  -0.9 °C 30.31in /  1026.3hPa Calm   1.0mph /  1.6km/h 40% 0.00in /  0mm 0.0 W/m2
20:18 54.0 °F /  12.2 °C 30.2 °F /  -1 °C 30.31in /  1026.3hPa Calm   1.0mph /  1.6km/h 40% 0.00in /  0mm 0.0 W/m2
20:24 54.0 °F /  12.2 °C 30.7 °F /  -0.7 °C 30.31in /  1026.3hPa Calm   1.0mph /  1.6km/h 41% 0.00in /  0mm 0.0 W/m2
20:30 54.0 °F /  12.2 °C 30.7 °F /  -0.7 °C 30.31in /  1026.3hPa Calm   1.0mph /  1.6km/h 41% 0.00in /  0mm 0.0 W/m2
20:36 54.0 °F /  12.2 °C 30.7 °F /  -0.7 °C 30.31in /  1026.3hPa ENE 0.9mph /  1.4km/h 1.0mph /  1.6km/h 41% 0.00in /  0mm 0.0 W/m2
20:42 53.8 °F /  12.1 °C 30.6 °F /  -0.8 °C 30.31in /  1026.3hPa Calm   1.0mph /  1.6km/h 41% 0.00in /  0mm 0.0 W/m2
20:49 53.8 °F /  12.1 °C 30.6 °F /  -0.8 °C 30.31in /  1026.3hPa Calm   2.0mph /  3.2km/h 41% 0.00in /  0mm 0.0 W/m2
20:55 53.8 °F /  12.1 °C 30.6 °F /  -0.8 °C 30.31in /  1026.3hPa Calm   2.0mph /  3.2km/h 41% 0.00in /  0mm 0.0 W/m2
21:01 54.0 °F /  12.2 °C 30.7 °F /  -0.7 °C 30.31in /  1026.3hPa Calm   4.0mph /  6.4km/h 41% 0.00in /  0mm 0.0 W/m2
21:07 54.1 °F /  12.3 °C 30.9 °F /  -0.6 °C 30.31in /  1026.3hPa Calm   2.0mph /  3.2km/h 41% 0.00in /  0mm 0.0 W/m2
21:13 54.3 °F /  12.4 °C 30.6 °F /  -0.8 °C 30.32in /  1026.6hPa East 0.9mph /  1.4km/h 2.0mph /  3.2km/h 40% 0.00in /  0mm 0.0 W/m2
21:19 54.5 °F /  12.5 °C 30.7 °F /  -0.7 °C 30.32in /  1026.6hPa Calm   2.0mph /  3.2km/h 40% 0.00in /  0mm 0.0 W/m2
21:26 54.3 °F /  12.4 °C 30.6 °F /  -0.8 °C 30.32in /  1026.6hPa East 0.9mph /  1.4km/h 3.0mph /  4.8km/h 40% 0.00in /  0mm 0.0 W/m2
21:32 54.1 °F /  12.3 °C 30.9 °F /  -0.6 °C 30.32in /  1026.6hPa Calm   1.0mph /  1.6km/h 41% 0.00in /  0mm 0.0 W/m2
21:38 53.8 °F /  12.1 °C 30.6 °F /  -0.8 °C 30.32in /  1026.6hPa Calm     41% 0.00in /  0mm 0.0 W/m2
21:44 53.4 °F /  11.9 °C 30.4 °F /  -0.9 °C 30.32in /  1026.6hPa Calm     41% 0.00in /  0mm 0.0 W/m2
21:50 53.2 °F /  11.8 °C 30.7 °F /  -0.7 °C 30.33in /  1027hPa Calm     42% 0.00in /  0mm 0.0 W/m2
21:56 53.1 °F /  11.7 °C 31.1 °F /  -0.5 °C 30.33in /  1027hPa Calm     43% 0.00in /  0mm 0.0 W/m2
22:02 52.7 °F /  11.5 °C 31.5 °F /  -0.3 °C 30.33in /  1027hPa Calm     44% 0.00in /  0mm 0.0 W/m2
22:15 52.2 °F /  11.2 °C 31.5 °F /  -0.3 °C 30.33in /  1027hPa Calm     45% 0.00in /  0mm 0.0 W/m2
22:21 52.0 °F /  11.1 °C 31.3 °F /  -0.4 °C 30.33in /  1027hPa Calm     45% 0.00in /  0mm 0.0 W/m2
22:27 51.6 °F /  10.9 °C 30.9 °F /  -0.6 °C 30.33in /  1027hPa Calm     45% 0.00in /  0mm 0.0 W/m2
22:33 51.4 °F /  10.8 °C 31.3 °F /  -0.4 °C 30.33in /  1027hPa Calm     46% 0.00in /  0mm 0.0 W/m2
22:39 51.3 °F /  10.7 °C 31.1 °F /  -0.5 °C 30.33in /  1027hPa Calm     46% 0.00in /  0mm 0.0 W/m2
22:45 51.3 °F /  10.7 °C 31.1 °F /  -0.5 °C 30.33in /  1027hPa Calm     46% 0.00in /  0mm 0.0 W/m2
22:52 51.3 °F /  10.7 °C 31.1 °F /  -0.5 °C 30.32in /  1026.6hPa Calm     46% 0.00in /  0mm 0.0 W/m2
22:58 51.3 °F /  10.7 °C 31.6 °F /  -0.2 °C 30.32in /  1026.6hPa Calm     47% 0.00in /  0mm 0.0 W/m2
23:04 51.1 °F /  10.6 °C 31.6 °F /  -0.2 °C 30.32in /  1026.6hPa Calm     47% 0.00in /  0mm 0.0 W/m2
23:10 51.1 °F /  10.6 °C 31.6 °F /  -0.2 °C 30.32in /  1026.6hPa Calm     47% 0.00in /  0mm 0.0 W/m2
23:16 50.7 °F /  10.4 °C 31.3 °F /  -0.4 °C 30.32in /  1026.6hPa Calm     47% 0.00in /  0mm 0.0 W/m2
23:22 50.5 °F /  10.3 °C 31.6 °F /  -0.2 °C 30.32in /  1026.6hPa Calm     48% 0.00in /  0mm 0.0 W/m2
23:28 50.4 °F /  10.2 °C 31.5 °F /  -0.3 °C 30.32in /  1026.6hPa Calm     48% 0.00in /  0mm 0.0 W/m2
23:35 50.0 °F /  10 °C 31.6 °F /  -0.2 °C 30.32in /  1026.6hPa Calm     49% 0.00in /  0mm 0.0 W/m2
23:41 49.6 °F /  9.8 °C 31.3 °F /  -0.4 °C 30.32in /  1026.6hPa Calm     49% 0.00in /  0mm 0.0 W/m2
23:47 49.3 °F /  9.6 °C 31.5 °F /  -0.3 °C 30.32in /  1026.6hPa Calm     50% 0.00in /  0mm 0.0 W/m2
23:53 48.9 °F /  9.4 °C 31.1 °F /  -0.5 °C 30.32in /  1026.6hPa Calm     50% 0.00in /  0mm 0.0 W/m2
23:59 48.7 °F /  9.3 °C 31.5 °F /  -0.3 °C 30.32in /  1026.6hPa Calm     51% 0.00in /  0mm 0.0 W/m2
Olympia, Windhoek, Namibia
Compliments of Weather Underground - 3 mb